sensor_id;sensor_type;location;lat;lon;timestamp;temperature;humidity
46900;DHT22;32647;49.382;7.078;2022-08-11T00:02:33;17.00;99.90
46900;DHT22;32647;49.382;7.078;2022-08-11T00:05:20;16.70;99.90
46900;DHT22;32647;49.382;7.078;2022-08-11T00:08:08;16.80;99.90
46900;DHT22;32647;49.382;7.078;2022-08-11T00:10:57;17.00;99.90
46900;DHT22;32647;49.382;7.078;2022-08-11T00:13:45;16.90;99.90
46900;DHT22;32647;49.382;7.078;2022-08-11T00:16:33;16.70;99.90
46900;DHT22;32647;49.382;7.078;2022-08-11T00:19:22;16.70;99.90
46900;DHT22;32647;49.382;7.078;2022-08-11T00:22:09;16.70;99.90
46900;DHT22;32647;49.382;7.078;2022-08-11T00:24:56;16.70;99.90
46900;DHT22;32647;49.382;7.078;2022-08-11T00:27:44;16.70;99.90
46900;DHT22;32647;49.382;7.078;2022-08-11T00:30:40;16.60;99.90
46900;DHT22;32647;49.382;7.078;2022-08-11T00:33:43;16.50;99.90
46900;DHT22;32647;49.382;7.078;2022-08-11T00:36:50;16.50;99.90
46900;DHT22;32647;49.382;7.078;2022-08-11T00:39:46;16.50;99.90
46900;DHT22;32647;49.382;7.078;2022-08-11T00:42:58;16.20;99.90
46900;DHT22;32647;49.382;7.078;2022-08-11T00:49:20;15.80;99.90
46900;DHT22;32647;49.382;7.078;2022-08-11T01:02:15;15.80;99.90
46900;DHT22;32647;49.382;7.078;2022-08-11T01:05:22;15.80;99.90
46900;DHT22;32647;49.382;7.078;2022-08-11T01:27:20;15.70;99.90
46900;DHT22;32647;49.382;7.078;2022-08-11T01:54:38;15.10;99.90
46900;DHT22;32647;49.382;7.078;2022-08-11T01:57:50;15.10;99.90
46900;DHT22;32647;49.382;7.078;2022-08-11T02:00:57;14.90;99.90
46900;DHT22;32647;49.382;7.078;2022-08-11T02:03:58;14.90;99.90
46900;DHT22;32647;49.382;7.078;2022-08-11T02:07:08;14.90;99.90
46900;DHT22;32647;49.382;7.078;2022-08-11T02:13:52;14.80;99.90
46900;DHT22;32647;49.382;7.078;2022-08-11T02:20:00;14.90;99.90
46900;DHT22;32647;49.382;7.078;2022-08-11T02:23:26;14.90;99.90
46900;DHT22;32647;49.382;7.078;2022-08-11T02:26:24;14.90;99.90
46900;DHT22;32647;49.382;7.078;2022-08-11T02:29:31;14.90;99.90
46900;DHT22;32647;49.382;7.078;2022-08-11T02:32:23;15.00;99.90
46900;DHT22;32647;49.382;7.078;2022-08-11T02:35:54;15.00;99.90
46900;DHT22;32647;49.382;7.078;2022-08-11T02:39:12;15.00;99.90
46900;DHT22;32647;49.382;7.078;2022-08-11T02:42:37;14.90;99.90
46900;DHT22;32647;49.382;7.078;2022-08-11T02:45:48;14.80;99.90
46900;DHT22;32647;49.382;7.078;2022-08-11T02:48:59;14.70;99.90
46900;DHT22;32647;49.382;7.078;2022-08-11T02:52:18;14.50;99.90
46900;DHT22;32647;49.382;7.078;2022-08-11T02:58:53;14.60;99.90
46900;DHT22;32647;49.382;7.078;2022-08-11T03:02:14;14.50;1.00
46900;DHT22;32647;49.382;7.078;2022-08-11T03:08:35;14.50;99.90
46900;DHT22;32647;49.382;7.078;2022-08-11T03:11:53;14.60;1.00
46900;DHT22;32647;49.382;7.078;2022-08-11T03:15:37;14.40;1.00
46900;DHT22;32647;49.382;7.078;2022-08-11T03:19:07;14.10;1.00
46900;DHT22;32647;49.382;7.078;2022-08-11T03:28:33;14.00;1.00
46900;DHT22;32647;49.382;7.078;2022-08-11T03:31:31;14.20;1.00
46900;DHT22;32647;49.382;7.078;2022-08-11T03:34:25;14.50;1.00
46900;DHT22;32647;49.382;7.078;2022-08-11T03:37:35;14.60;1.00
46900;DHT22;32647;49.382;7.078;2022-08-11T03:44:46;14.50;99.90
46900;DHT22;32647;49.382;7.078;2022-08-11T03:51:14;14.40;1.00
46900;DHT22;32647;49.382;7.078;2022-08-11T03:57:40;14.10;1.00
46900;DHT22;32647;49.382;7.078;2022-08-11T04:11:20;14.00;1.00
46900;DHT22;32647;49.382;7.078;2022-08-11T04:14:31;13.90;1.00
46900;DHT22;32647;49.382;7.078;2022-08-11T04:21:25;14.00;1.00
46900;DHT22;32647;49.382;7.078;2022-08-11T04:24:57;14.10;1.00
46900;DHT22;32647;49.382;7.078;2022-08-11T04:28:22;14.10;1.00
46900;DHT22;32647;49.382;7.078;2022-08-11T04:31:38;14.00;1.00
46900;DHT22;32647;49.382;7.078;2022-08-11T04:34:50;13.90;28.40
46900;DHT22;32647;49.382;7.078;2022-08-11T04:54:52;14.00;1.00
46900;DHT22;32647;49.382;7.078;2022-08-11T04:58:37;14.00;92.10
46900;DHT22;32647;49.382;7.078;2022-08-11T05:08:50;14.10;85.10
46900;DHT22;32647;49.382;7.078;2022-08-11T05:14:50;14.20;99.90
46900;DHT22;32647;49.382;7.078;2022-08-11T05:18:17;14.40;1.00
46900;DHT22;32647;49.382;7.078;2022-08-11T05:21:24;14.70;1.00
46900;DHT22;32647;49.382;7.078;2022-08-11T05:24:30;14.70;1.00
46900;DHT22;32647;49.382;7.078;2022-08-11T05:27:50;14.70;1.00
46900;DHT22;32647;49.382;7.078;2022-08-11T05:31:08;14.70;1.00
46900;DHT22;32647;49.382;7.078;2022-08-11T05:34:24;14.90;1.00
46900;DHT22;32647;49.382;7.078;2022-08-11T05:40:22;15.10;1.00
46900;DHT22;32647;49.382;7.078;2022-08-11T05:43:27;15.30;1.00
46900;DHT22;32647;49.382;7.078;2022-08-11T05:46:40;15.40;1.00
46900;DHT22;32647;49.382;7.078;2022-08-11T05:49:49;15.60;1.00
46900;DHT22;32647;49.382;7.078;2022-08-11T05:53:00;15.80;99.90
46900;DHT22;32647;49.382;7.078;2022-08-11T05:56:12;16.20;99.90
46900;DHT22;32647;49.382;7.078;2022-08-11T05:59:24;16.30;99.90
46900;DHT22;32647;49.382;7.078;2022-08-11T06:02:16;16.50;99.90
46900;DHT22;32647;49.382;7.078;2022-08-11T06:05:03;16.60;99.90
46900;DHT22;32647;49.382;7.078;2022-08-11T06:07:55;16.90;99.90
46900;DHT22;32647;49.382;7.078;2022-08-11T06:10:48;17.10;99.90
46900;DHT22;32647;49.382;7.078;2022-08-11T06:14:01;17.40;99.90
46900;DHT22;32647;49.382;7.078;2022-08-11T06:16:58;17.40;99.90
46900;DHT22;32647;49.382;7.078;2022-08-11T06:19:48;17.60;99.90
46900;DHT22;32647;49.382;7.078;2022-08-11T06:22:38;17.80;99.90
46900;DHT22;32647;49.382;7.078;2022-08-11T06:25:36;17.80;99.90
46900;DHT22;32647;49.382;7.078;2022-08-11T06:28:35;18.10;99.90
46900;DHT22;32647;49.382;7.078;2022-08-11T06:31:26;18.20;99.90
46900;DHT22;32647;49.382;7.078;2022-08-11T06:34:38;18.50;99.90
46900;DHT22;32647;49.382;7.078;2022-08-11T06:41:06;18.70;99.90
46900;DHT22;32647;49.382;7.078;2022-08-11T06:44:26;18.80;99.90
46900;DHT22;32647;49.382;7.078;2022-08-11T06:47:15;19.00;99.90
46900;DHT22;32647;49.382;7.078;2022-08-11T06:50:05;19.20;99.90
46900;DHT22;32647;49.382;7.078;2022-08-11T06:53:43;19.40;99.90
46900;DHT22;32647;49.382;7.078;2022-08-11T06:56:41;19.50;99.90
46900;DHT22;32647;49.382;7.078;2022-08-11T06:59:46;19.70;99.90
46900;DHT22;32647;49.382;7.078;2022-08-11T07:03:18;19.80;99.90
46900;DHT22;32647;49.382;7.078;2022-08-11T07:06:42;19.90;99.90
46900;DHT22;32647;49.382;7.078;2022-08-11T07:09:42;20.20;99.90
46900;DHT22;32647;49.382;7.078;2022-08-11T07:12:57;20.30;99.90
46900;DHT22;32647;49.382;7.078;2022-08-11T07:16:03;20.50;99.90
46900;DHT22;32647;49.382;7.078;2022-08-11T07:19:03;20.70;99.90
46900;DHT22;32647;49.382;7.078;2022-08-11T07:22:25;20.90;99.90
46900;DHT22;32647;49.382;7.078;2022-08-11T07:25:38;20.90;99.90
46900;DHT22;32647;49.382;7.078;2022-08-11T07:28:52;21.20;99.90
46900;DHT22;32647;49.382;7.078;2022-08-11T07:31:49;21.40;99.90
46900;DHT22;32647;49.382;7.078;2022-08-11T07:34:37;21.60;99.90
46900;DHT22;32647;49.382;7.078;2022-08-11T07:37:30;21.60;99.90
46900;DHT22;32647;49.382;7.078;2022-08-11T07:40:25;21.80;99.90
46900;DHT22;32647;49.382;7.078;2022-08-11T07:43:14;21.90;99.90
46900;DHT22;32647;49.382;7.078;2022-08-11T07:46:08;22.00;99.90
46900;DHT22;32647;49.382;7.078;2022-08-11T07:49:17;22.00;99.90
46900;DHT22;32647;49.382;7.078;2022-08-11T07:52:29;22.50;99.90
46900;DHT22;32647;49.382;7.078;2022-08-11T07:55:36;22.70;99.90
46900;DHT22;32647;49.382;7.078;2022-08-11T07:58:24;22.80;99.90
46900;DHT22;32647;49.382;7.078;2022-08-11T08:01:30;22.70;99.90
46900;DHT22;32647;49.382;7.078;2022-08-11T08:04:44;22.90;99.90
46900;DHT22;32647;49.382;7.078;2022-08-11T08:07:57;23.00;99.90
46900;DHT22;32647;49.382;7.078;2022-08-11T08:11:09;23.30;99.90
46900;DHT22;32647;49.382;7.078;2022-08-11T08:14:16;23.30;99.90
46900;DHT22;32647;49.382;7.078;2022-08-11T08:17:21;23.40;99.90
46900;DHT22;32647;49.382;7.078;2022-08-11T08:20:46;23.40;99.90
46900;DHT22;32647;49.382;7.078;2022-08-11T08:23:34;23.60;99.90
46900;DHT22;32647;49.382;7.078;2022-08-11T08:26:20;24.00;99.90
46900;DHT22;32647;49.382;7.078;2022-08-11T08:29:36;24.30;99.90
46900;DHT22;32647;49.382;7.078;2022-08-11T08:32:43;24.60;99.90
46900;DHT22;32647;49.382;7.078;2022-08-11T08:35:35;24.60;99.90
46900;DHT22;32647;49.382;7.078;2022-08-11T08:38:22;24.30;99.90
46900;DHT22;32647;49.382;7.078;2022-08-11T08:41:10;24.80;99.90
46900;DHT22;32647;49.382;7.078;2022-08-11T08:44:10;25.20;99.90
46900;DHT22;32647;49.382;7.078;2022-08-11T08:47:02;25.30;99.90
46900;DHT22;32647;49.382;7.078;2022-08-11T08:49:58;25.20;99.90
46900;DHT22;32647;49.382;7.078;2022-08-11T08:53:09;25.60;99.90
46900;DHT22;32647;49.382;7.078;2022-08-11T08:55:59;25.60;99.90
46900;DHT22;32647;49.382;7.078;2022-08-11T08:58:48;25.50;99.90
46900;DHT22;32647;49.382;7.078;2022-08-11T09:02:01;25.80;99.90
46900;DHT22;32647;49.382;7.078;2022-08-11T09:05:06;26.10;99.90
46900;DHT22;32647;49.382;7.078;2022-08-11T09:08:25;26.00;99.90
46900;DHT22;32647;49.382;7.078;2022-08-11T09:11:15;26.40;99.90
46900;DHT22;32647;49.382;7.078;2022-08-11T09:18:07;26.60;99.90
46900;DHT22;32647;49.382;7.078;2022-08-11T09:23:29;27.60;99.90
46900;DHT22;32647;49.382;7.078;2022-08-11T09:26:36;27.10;99.90
46900;DHT22;32647;49.382;7.078;2022-08-11T09:29:41;26.90;99.90
46900;DHT22;32647;49.382;7.078;2022-08-11T09:32:28;27.00;99.90
46900;DHT22;32647;49.382;7.078;2022-08-11T09:35:16;27.00;99.90
46900;DHT22;32647;49.382;7.078;2022-08-11T09:38:04;26.80;99.90
46900;DHT22;32647;49.382;7.078;2022-08-11T09:41:11;27.30;99.90
46900;DHT22;32647;49.382;7.078;2022-08-11T09:43:59;27.70;99.90
46900;DHT22;32647;49.382;7.078;2022-08-11T09:47:04;27.90;99.90
46900;DHT22;32647;49.382;7.078;2022-08-11T09:49:59;27.70;99.90
46900;DHT22;32647;49.382;7.078;2022-08-11T09:52:45;27.90;99.90
46900;DHT22;32647;49.382;7.078;2022-08-11T09:55:33;28.20;99.90
46900;DHT22;32647;49.382;7.078;2022-08-11T09:58:20;28.40;99.90
46900;DHT22;32647;49.382;7.078;2022-08-11T10:01:07;28.30;99.90
46900;DHT22;32647;49.382;7.078;2022-08-11T10:07:03;28.20;99.90
46900;DHT22;32647;49.382;7.078;2022-08-11T10:09:58;27.80;99.90
46900;DHT22;32647;49.382;7.078;2022-08-11T10:12:49;28.40;99.90
46900;DHT22;32647;49.382;7.078;2022-08-11T10:15:36;28.30;99.90
46900;DHT22;32647;49.382;7.078;2022-08-11T10:18:32;28.40;99.90
46900;DHT22;32647;49.382;7.078;2022-08-11T10:24:41;28.50;99.90
46900;DHT22;32647;49.382;7.078;2022-08-11T10:27:47;28.80;99.90
46900;DHT22;32647;49.382;7.078;2022-08-11T10:30:45;29.00;99.90
46900;DHT22;32647;49.382;7.078;2022-08-11T10:33:51;28.70;99.90
46900;DHT22;32647;49.382;7.078;2022-08-11T10:36:48;28.70;99.90
46900;DHT22;32647;49.382;7.078;2022-08-11T10:39:34;29.20;99.90
46900;DHT22;32647;49.382;7.078;2022-08-11T10:42:25;29.50;99.90
46900;DHT22;32647;49.382;7.078;2022-08-11T10:45:34;29.50;99.90
46900;DHT22;32647;49.382;7.078;2022-08-11T10:48:38;29.50;99.90
46900;DHT22;32647;49.382;7.078;2022-08-11T10:51:26;29.70;99.90
46900;DHT22;32647;49.382;7.078;2022-08-11T10:54:33;29.90;99.90
46900;DHT22;32647;49.382;7.078;2022-08-11T10:57:39;29.70;99.90
46900;DHT22;32647;49.382;7.078;2022-08-11T11:00:44;29.60;99.90
46900;DHT22;32647;49.382;7.078;2022-08-11T11:03:31;29.90;99.90
46900;DHT22;32647;49.382;7.078;2022-08-11T11:06:32;29.90;99.90
46900;DHT22;32647;49.382;7.078;2022-08-11T11:15:12;30.20;99.90
46900;DHT22;32647;49.382;7.078;2022-08-11T11:18:23;30.60;99.90
46900;DHT22;32647;49.382;7.078;2022-08-11T11:21:18;30.60;99.90
46900;DHT22;32647;49.382;7.078;2022-08-11T11:27:13;30.90;99.90
46900;DHT22;32647;49.382;7.078;2022-08-11T11:30:10;30.50;99.90
46900;DHT22;32647;49.382;7.078;2022-08-11T11:33:19;30.70;99.90
46900;DHT22;32647;49.382;7.078;2022-08-11T11:36:23;30.40;99.90
46900;DHT22;32647;49.382;7.078;2022-08-11T11:39:14;30.80;99.90
46900;DHT22;32647;49.382;7.078;2022-08-11T11:42:05;30.60;99.90
46900;DHT22;32647;49.382;7.078;2022-08-11T11:44:52;30.60;99.90
46900;DHT22;32647;49.382;7.078;2022-08-11T11:47:39;31.10;99.90
46900;DHT22;32647;49.382;7.078;2022-08-11T11:50:43;31.10;99.90
46900;DHT22;32647;49.382;7.078;2022-08-11T11:53:29;30.80;99.90
46900;DHT22;32647;49.382;7.078;2022-08-11T11:56:16;31.10;99.90
46900;DHT22;32647;49.382;7.078;2022-08-11T11:59:03;31.50;99.90
46900;DHT22;32647;49.382;7.078;2022-08-11T12:02:11;31.50;99.90
46900;DHT22;32647;49.382;7.078;2022-08-11T12:04:58;31.40;99.90
46900;DHT22;32647;49.382;7.078;2022-08-11T12:07:46;31.40;99.90
46900;DHT22;32647;49.382;7.078;2022-08-11T12:11:01;31.90;99.90
46900;DHT22;32647;49.382;7.078;2022-08-11T12:14:07;31.90;99.90
46900;DHT22;32647;49.382;7.078;2022-08-11T12:16:55;31.50;99.90
46900;DHT22;32647;49.382;7.078;2022-08-11T12:19:42;31.70;99.90
46900;DHT22;32647;49.382;7.078;2022-08-11T12:22:28;31.70;99.90
46900;DHT22;32647;49.382;7.078;2022-08-11T12:25:34;32.20;99.90
46900;DHT22;32647;49.382;7.078;2022-08-11T12:28:39;32.80;99.90
46900;DHT22;32647;49.382;7.078;2022-08-11T12:31:25;32.50;99.90
46900;DHT22;32647;49.382;7.078;2022-08-11T12:34:13;32.40;99.90
46900;DHT22;32647;49.382;7.078;2022-08-11T12:37:01;32.40;99.90
46900;DHT22;32647;49.382;7.078;2022-08-11T12:39:53;32.20;99.90
46900;DHT22;32647;49.382;7.078;2022-08-11T12:43:02;32.50;99.90
46900;DHT22;32647;49.382;7.078;2022-08-11T12:46:16;32.80;99.90
46900;DHT22;32647;49.382;7.078;2022-08-11T12:49:12;32.30;99.90
46900;DHT22;32647;49.382;7.078;2022-08-11T12:52:25;32.10;99.90
46900;DHT22;32647;49.382;7.078;2022-08-11T12:55:15;32.30;99.90
46900;DHT22;32647;49.382;7.078;2022-08-11T12:58:22;33.10;99.90
46900;DHT22;32647;49.382;7.078;2022-08-11T13:01:09;32.70;99.90
46900;DHT22;32647;49.382;7.078;2022-08-11T13:04:14;33.20;99.90
46900;DHT22;32647;49.382;7.078;2022-08-11T13:07:19;33.00;99.90
46900;DHT22;32647;49.382;7.078;2022-08-11T13:10:06;32.80;99.90
46900;DHT22;32647;49.382;7.078;2022-08-11T13:12:53;32.50;99.90
46900;DHT22;32647;49.382;7.078;2022-08-11T13:15:40;32.80;99.90
46900;DHT22;32647;49.382;7.078;2022-08-11T13:18:27;33.10;99.90
46900;DHT22;32647;49.382;7.078;2022-08-11T13:21:14;32.90;99.90
46900;DHT22;32647;49.382;7.078;2022-08-11T13:24:00;33.70;99.90
46900;DHT22;32647;49.382;7.078;2022-08-11T13:26:48;33.70;99.90
46900;DHT22;32647;49.382;7.078;2022-08-11T13:29:35;33.30;99.90
46900;DHT22;32647;49.382;7.078;2022-08-11T13:32:22;33.00;99.90
46900;DHT22;32647;49.382;7.078;2022-08-11T13:35:12;33.20;99.90
46900;DHT22;32647;49.382;7.078;2022-08-11T13:38:03;33.00;99.90
46900;DHT22;32647;49.382;7.078;2022-08-11T13:40:51;33.40;99.90
46900;DHT22;32647;49.382;7.078;2022-08-11T13:43:39;33.30;99.90
46900;DHT22;32647;49.382;7.078;2022-08-11T13:46:26;33.10;99.90
46900;DHT22;32647;49.382;7.078;2022-08-11T13:49:15;33.50;99.90
46900;DHT22;32647;49.382;7.078;2022-08-11T13:52:02;33.50;99.90
46900;DHT22;32647;49.382;7.078;2022-08-11T13:54:49;33.20;99.90
46900;DHT22;32647;49.382;7.078;2022-08-11T13:57:37;33.30;99.90
46900;DHT22;32647;49.382;7.078;2022-08-11T14:00:28;33.60;99.90
46900;DHT22;32647;49.382;7.078;2022-08-11T14:03:24;33.20;99.90
46900;DHT22;32647;49.382;7.078;2022-08-11T14:06:12;32.90;99.90
46900;DHT22;32647;49.382;7.078;2022-08-11T14:08:59;33.90;99.90
46900;DHT22;32647;49.382;7.078;2022-08-11T14:11:45;33.90;99.90
46900;DHT22;32647;49.382;7.078;2022-08-11T14:15:00;33.50;99.90
46900;DHT22;32647;49.382;7.078;2022-08-11T14:17:58;33.60;99.90
46900;DHT22;32647;49.382;7.078;2022-08-11T14:20:54;33.00;99.90
46900;DHT22;32647;49.382;7.078;2022-08-11T14:24:00;33.20;99.90
46900;DHT22;32647;49.382;7.078;2022-08-11T14:26:48;33.50;99.90
46900;DHT22;32647;49.382;7.078;2022-08-11T14:29:36;33.40;99.90
46900;DHT22;32647;49.382;7.078;2022-08-11T14:32:24;33.30;99.90
46900;DHT22;32647;49.382;7.078;2022-08-11T14:35:12;33.50;99.90
46900;DHT22;32647;49.382;7.078;2022-08-11T14:37:58;33.30;99.90
46900;DHT22;32647;49.382;7.078;2022-08-11T14:43:20;33.00;99.90
46900;DHT22;32647;49.382;7.078;2022-08-11T14:46:25;33.00;99.90
46900;DHT22;32647;49.382;7.078;2022-08-11T14:49:32;33.00;99.90
46900;DHT22;32647;49.382;7.078;2022-08-11T14:52:19;32.80;99.90
46900;DHT22;32647;49.382;7.078;2022-08-11T14:55:06;33.10;99.90
46900;DHT22;32647;49.382;7.078;2022-08-11T14:58:16;32.90;99.90
46900;DHT22;32647;49.382;7.078;2022-08-11T15:01:03;32.80;99.90
46900;DHT22;32647;49.382;7.078;2022-08-11T15:04:09;32.40;99.90
46900;DHT22;32647;49.382;7.078;2022-08-11T15:06:55;32.50;99.90
46900;DHT22;32647;49.382;7.078;2022-08-11T15:09:42;32.30;99.90
46900;DHT22;32647;49.382;7.078;2022-08-11T15:12:30;32.10;99.90
46900;DHT22;32647;49.382;7.078;2022-08-11T15:15:18;32.30;99.90
46900;DHT22;32647;49.382;7.078;2022-08-11T15:18:24;32.10;99.90
46900;DHT22;32647;49.382;7.078;2022-08-11T15:21:11;32.20;99.90
46900;DHT22;32647;49.382;7.078;2022-08-11T15:24:15;32.20;99.90
46900;DHT22;32647;49.382;7.078;2022-08-11T15:27:10;32.30;99.90
46900;DHT22;32647;49.382;7.078;2022-08-11T15:30:16;31.80;99.90
46900;DHT22;32647;49.382;7.078;2022-08-11T15:33:35;31.90;99.90
46900;DHT22;32647;49.382;7.078;2022-08-11T15:36:44;32.00;99.90
46900;DHT22;32647;49.382;7.078;2022-08-11T15:43:10;31.20;99.90
46900;DHT22;32647;49.382;7.078;2022-08-11T15:46:26;31.40;99.90
46900;DHT22;32647;49.382;7.078;2022-08-11T15:49:29;31.60;99.90
46900;DHT22;32647;49.382;7.078;2022-08-11T15:52:20;31.80;99.90
46900;DHT22;32647;49.382;7.078;2022-08-11T15:55:07;31.90;99.90
46900;DHT22;32647;49.382;7.078;2022-08-11T15:57:54;31.70;99.90
46900;DHT22;32647;49.382;7.078;2022-08-11T16:01:01;31.50;99.90
46900;DHT22;32647;49.382;7.078;2022-08-11T16:04:09;31.50;99.90
46900;DHT22;32647;49.382;7.078;2022-08-11T16:07:11;31.20;99.90
46900;DHT22;32647;49.382;7.078;2022-08-11T16:09:59;31.00;99.90
46900;DHT22;32647;49.382;7.078;2022-08-11T16:13:02;30.90;99.90
46900;DHT22;32647;49.382;7.078;2022-08-11T16:15:54;30.90;99.90
46900;DHT22;32647;49.382;7.078;2022-08-11T16:19:00;30.90;99.90
46900;DHT22;32647;49.382;7.078;2022-08-11T16:21:48;30.90;99.90
46900;DHT22;32647;49.382;7.078;2022-08-11T16:24:39;31.00;99.90
46900;DHT22;32647;49.382;7.078;2022-08-11T16:27:31;30.80;99.90
46900;DHT22;32647;49.382;7.078;2022-08-11T16:30:19;30.70;99.90
46900;DHT22;32647;49.382;7.078;2022-08-11T16:33:07;31.00;99.90
46900;DHT22;32647;49.382;7.078;2022-08-11T16:35:54;30.90;99.90
46900;DHT22;32647;49.382;7.078;2022-08-11T16:39:00;30.70;99.90
46900;DHT22;32647;49.382;7.078;2022-08-11T16:41:48;30.60;99.90
46900;DHT22;32647;49.382;7.078;2022-08-11T16:44:55;30.60;99.90
46900;DHT22;32647;49.382;7.078;2022-08-11T16:48:05;30.60;99.90
46900;DHT22;32647;49.382;7.078;2022-08-11T16:50:52;30.40;99.90
46900;DHT22;32647;49.382;7.078;2022-08-11T16:53:39;30.10;99.90
46900;DHT22;32647;49.382;7.078;2022-08-11T16:56:35;30.10;99.90
46900;DHT22;32647;49.382;7.078;2022-08-11T16:59:35;30.00;99.90
46900;DHT22;32647;49.382;7.078;2022-08-11T17:02:23;30.20;99.90
46900;DHT22;32647;49.382;7.078;2022-08-11T17:05:33;30.30;99.90
46900;DHT22;32647;49.382;7.078;2022-08-11T17:08:46;30.00;99.90
46900;DHT22;32647;49.382;7.078;2022-08-11T17:11:54;29.90;99.90
46900;DHT22;32647;49.382;7.078;2022-08-11T17:15:01;30.00;99.90
46900;DHT22;32647;49.382;7.078;2022-08-11T17:17:48;30.10;99.90
46900;DHT22;32647;49.382;7.078;2022-08-11T17:20:35;30.20;99.90
46900;DHT22;32647;49.382;7.078;2022-08-11T17:23:23;30.00;99.90
46900;DHT22;32647;49.382;7.078;2022-08-11T17:26:41;29.80;99.90
46900;DHT22;32647;49.382;7.078;2022-08-11T17:29:51;29.50;99.90
46900;DHT22;32647;49.382;7.078;2022-08-11T17:32:44;29.30;99.90
46900;DHT22;32647;49.382;7.078;2022-08-11T17:35:50;29.30;99.90
46900;DHT22;32647;49.382;7.078;2022-08-11T17:38:37;29.20;99.90
46900;DHT22;32647;49.382;7.078;2022-08-11T17:41:24;29.10;99.90
46900;DHT22;32647;49.382;7.078;2022-08-11T17:44:29;28.90;99.90
46900;DHT22;32647;49.382;7.078;2022-08-11T17:47:36;28.80;99.90
46900;DHT22;32647;49.382;7.078;2022-08-11T17:50:41;28.80;99.90
46900;DHT22;32647;49.382;7.078;2022-08-11T17:53:31;28.70;99.90
46900;DHT22;32647;49.382;7.078;2022-08-11T17:56:38;28.60;99.90
46900;DHT22;32647;49.382;7.078;2022-08-11T17:59:42;28.50;99.90
46900;DHT22;32647;49.382;7.078;2022-08-11T18:02:41;28.40;99.90
46900;DHT22;32647;49.382;7.078;2022-08-11T18:05:46;28.30;99.90
46900;DHT22;32647;49.382;7.078;2022-08-11T18:08:37;28.20;99.90
46900;DHT22;32647;49.382;7.078;2022-08-11T18:11:45;28.00;99.90
46900;DHT22;32647;49.382;7.078;2022-08-11T18:14:53;27.80;99.90
46900;DHT22;32647;49.382;7.078;2022-08-11T18:17:58;27.70;99.90
46900;DHT22;32647;49.382;7.078;2022-08-11T18:21:03;27.70;99.90
46900;DHT22;32647;49.382;7.078;2022-08-11T18:24:11;27.80;99.90
46900;DHT22;32647;49.382;7.078;2022-08-11T18:27:17;27.70;99.90
46900;DHT22;32647;49.382;7.078;2022-08-11T18:30:24;27.90;99.90
46900;DHT22;32647;49.382;7.078;2022-08-11T18:33:36;27.90;99.90
46900;DHT22;32647;49.382;7.078;2022-08-11T18:37:01;27.70;99.90
46900;DHT22;32647;49.382;7.078;2022-08-11T18:40:13;27.20;99.90
46900;DHT22;32647;49.382;7.078;2022-08-11T18:43:21;26.80;99.90
46900;DHT22;32647;49.382;7.078;2022-08-11T18:46:32;26.50;99.90
46900;DHT22;32647;49.382;7.078;2022-08-11T18:49:39;26.00;99.90
46900;DHT22;32647;49.382;7.078;2022-08-11T18:52:47;25.80;99.90
46900;DHT22;32647;49.382;7.078;2022-08-11T18:55:55;25.60;99.90
46900;DHT22;32647;49.382;7.078;2022-08-11T18:59:02;25.40;99.90
46900;DHT22;32647;49.382;7.078;2022-08-11T19:02:09;25.30;99.90
46900;DHT22;32647;49.382;7.078;2022-08-11T19:05:14;25.10;99.90
46900;DHT22;32647;49.382;7.078;2022-08-11T19:08:20;24.90;99.90
46900;DHT22;32647;49.382;7.078;2022-08-11T19:11:26;24.80;99.90
46900;DHT22;32647;49.382;7.078;2022-08-11T19:14:33;24.70;99.90
46900;DHT22;32647;49.382;7.078;2022-08-11T19:17:41;24.60;99.90
46900;DHT22;32647;49.382;7.078;2022-08-11T19:20:47;24.60;99.90
46900;DHT22;32647;49.382;7.078;2022-08-11T19:23:55;24.50;99.90
46900;DHT22;32647;49.382;7.078;2022-08-11T19:27:01;24.40;99.90
46900;DHT22;32647;49.382;7.078;2022-08-11T19:30:08;24.30;99.90
46900;DHT22;32647;49.382;7.078;2022-08-11T19:33:13;24.20;99.90
46900;DHT22;32647;49.382;7.078;2022-08-11T19:36:18;24.10;99.90
46900;DHT22;32647;49.382;7.078;2022-08-11T19:39:26;24.00;99.90
46900;DHT22;32647;49.382;7.078;2022-08-11T19:42:32;23.90;99.90
46900;DHT22;32647;49.382;7.078;2022-08-11T19:45:37;23.90;99.90
46900;DHT22;32647;49.382;7.078;2022-08-11T19:48:44;23.70;99.90
46900;DHT22;32647;49.382;7.078;2022-08-11T19:51:50;23.50;99.90
46900;DHT22;32647;49.382;7.078;2022-08-11T19:54:55;23.40;99.90
46900;DHT22;32647;49.382;7.078;2022-08-11T19:57:59;23.50;99.90
46900;DHT22;32647;49.382;7.078;2022-08-11T20:01:04;23.40;99.90
46900;DHT22;32647;49.382;7.078;2022-08-11T20:04:09;23.30;99.90
46900;DHT22;32647;49.382;7.078;2022-08-11T20:07:14;23.20;99.90
46900;DHT22;32647;49.382;7.078;2022-08-11T20:10:19;23.20;99.90
46900;DHT22;32647;49.382;7.078;2022-08-11T20:13:26;23.20;99.90
46900;DHT22;32647;49.382;7.078;2022-08-11T20:16:31;23.10;99.90
46900;DHT22;32647;49.382;7.078;2022-08-11T20:19:38;23.00;99.90
46900;DHT22;32647;49.382;7.078;2022-08-11T20:22:44;22.80;99.90
46900;DHT22;32647;49.382;7.078;2022-08-11T20:25:51;22.60;99.90
46900;DHT22;32647;49.382;7.078;2022-08-11T20:28:58;22.40;99.90
46900;DHT22;32647;49.382;7.078;2022-08-11T20:32:03;22.20;99.90
46900;DHT22;32647;49.382;7.078;2022-08-11T20:35:09;22.20;99.90
46900;DHT22;32647;49.382;7.078;2022-08-11T20:38:14;22.10;99.90
46900;DHT22;32647;49.382;7.078;2022-08-11T20:41:20;22.00;99.90
46900;DHT22;32647;49.382;7.078;2022-08-11T20:44:27;21.60;99.90
46900;DHT22;32647;49.382;7.078;2022-08-11T20:47:34;21.30;99.90
46900;DHT22;32647;49.382;7.078;2022-08-11T20:50:44;21.00;99.90
46900;DHT22;32647;49.382;7.078;2022-08-11T20:53:50;20.70;99.90
46900;DHT22;32647;49.382;7.078;2022-08-11T20:56:54;20.50;99.90
46900;DHT22;32647;49.382;7.078;2022-08-11T21:00:00;20.20;99.90
46900;DHT22;32647;49.382;7.078;2022-08-11T21:03:05;20.10;99.90
46900;DHT22;32647;49.382;7.078;2022-08-11T21:06:10;19.90;99.90
46900;DHT22;32647;49.382;7.078;2022-08-11T21:09:17;19.80;99.90
46900;DHT22;32647;49.382;7.078;2022-08-11T21:12:24;19.70;99.90
46900;DHT22;32647;49.382;7.078;2022-08-11T21:15:34;19.70;99.90
46900;DHT22;32647;49.382;7.078;2022-08-11T21:21:16;19.50;99.90
46900;DHT22;32647;49.382;7.078;2022-08-11T21:24:22;19.40;99.90
46900;DHT22;32647;49.382;7.078;2022-08-11T21:27:31;19.20;99.90
46900;DHT22;32647;49.382;7.078;2022-08-11T21:30:37;19.20;99.90
46900;DHT22;32647;49.382;7.078;2022-08-11T21:33:43;19.00;99.90
46900;DHT22;32647;49.382;7.078;2022-08-11T21:36:49;18.80;99.90
46900;DHT22;32647;49.382;7.078;2022-08-11T21:39:56;18.80;99.90
46900;DHT22;32647;49.382;7.078;2022-08-11T21:43:02;18.80;99.90
46900;DHT22;32647;49.382;7.078;2022-08-11T21:46:08;18.80;99.90
46900;DHT22;32647;49.382;7.078;2022-08-11T21:49:14;18.80;99.90
46900;DHT22;32647;49.382;7.078;2022-08-11T21:52:19;18.70;99.90